Time;durP1;ratioP1;P1;durP2;ratioP2;P2;SDS_P1;SDS_P2;PMS_P1;PMS_P2;Temp;Humidity;BMP_temperature;BMP_pressure;BME280_temperature;BME280_humidity;BME280_pressure;Samples;Min_cycle;Max_cycle;Signal;HPM_P1;HPM_P2
2022/10/03 00:01:59;;;;;;;14.87;7.75;;;;;;;9.37;93.31;99571.55;1738353;82;25816;-67
2022/10/03 00:04:57;;;;;;;13.15;7.80;;;;;;;9.37;93.32;99568.06;1740371;82;25422;-66
2022/10/03 00:07:53;;;;;;;10.35;7.42;;;;;;;9.38;93.41;99566.94;1744129;82;25940;-67
2022/10/03 00:10:50;;;;;;;13.22;8.55;;;;;;;9.39;93.44;99569.88;1744303;82;25580;-66
2022/10/03 00:13:49;;;;;;;16.73;8.90;;;;;;;9.38;93.49;99567.75;1715559;82;28023;-67
2022/10/03 00:16:20;;;;;;;21.52;9.95;;;;;;;9.39;93.78;99579.33;1684044;85;25742;-65
2022/10/03 00:19:07;;;;;;;14.30;8.98;;;;;;;9.37;93.51;99573.47;1686506;85;25619;-65
2022/10/03 00:22:03;;;;;;;16.55;9.23;;;;;;;9.35;93.40;99575.91;1664154;86;25921;-65
2022/10/03 00:24:40;;;;;;;16.73;9.35;;;;;;;9.37;93.62;99577.52;1663706;86;25259;-66
2022/10/03 00:27:46;;;;;;;12.70;9.25;;;;;;;9.36;93.46;99575.34;1664161;86;26901;-66
2022/10/03 00:30:20;;;;;;;20.17;11.53;;;;;;;9.38;93.54;99573.69;1646996;86;25543;-66
2022/10/03 00:33:15;;;;;;;14.83;10.35;;;;;;;9.36;93.35;99572.65;1664188;86;25712;-67
2022/10/03 00:36:14;;;;;;;18.02;10.70;;;;;;;9.36;93.31;99574.00;1662601;86;26162;-66
2022/10/03 00:38:51;;;;;;;18.57;11.40;;;;;;;9.35;93.32;99570.52;1644551;87;25871;-67
2022/10/03 00:41:32;;;;;;;16.60;10.32;;;;;;;9.38;93.36;99560.19;1637630;87;27603;-67
2022/10/03 00:44:29;;;;;;;16.75;10.78;;;;;;;9.38;93.29;99559.66;1643720;87;25486;-67
2022/10/03 00:47:39;;;;;;;18.05;10.38;;;;;;;9.38;93.24;99558.30;1644581;87;25482;-67
2022/10/03 00:50:30;;;;;;;16.10;10.03;;;;;;;9.39;93.12;99552.34;1644550;87;26127;-66
2022/10/03 00:53:26;;;;;;;13.03;9.70;;;;;;;9.39;93.07;99554.47;1653719;85;25494;-68
2022/10/03 00:56:22;;;;;;;15.38;9.15;;;;;;;9.39;93.04;99545.03;1615932;88;27420;-67
2022/10/03 00:59:10;;;;;;;17.48;9.00;;;;;;;9.39;93.04;99540.98;1629192;87;25486;-67
2022/10/03 01:01:49;;;;;;;12.07;8.55;;;;;;;9.41;93.08;99542.02;1668590;85;25617;-65
2022/10/03 01:04:49;;;;;;;18.47;9.17;;;;;;;9.39;92.99;99542.33;1634016;87;28138;-65
2022/10/03 01:07:39;;;;;;;10.75;7.62;;;;;;;9.39;93.06;99542.33;1649230;86;25814;-67
2022/10/03 01:10:21;;;;;;;11.95;8.10;;;;;;;9.40;92.95;99535.02;1667323;86;28245;-66
2022/10/03 01:13:12;;;;;;;16.97;7.90;;;;;;;9.38;93.04;99531.84;1633765;87;25619;-65
2022/10/03 01:16:13;;;;;;;14.53;8.43;;;;;;;9.38;93.01;99531.31;1703716;81;25568;-65
2022/10/03 01:19:22;;;;;;;13.58;8.18;;;;;;;9.36;93.00;99526.77;1754378;81;25953;-67
2022/10/03 01:22:23;;;;;;;10.10;7.72;;;;;;;9.34;92.94;99527.08;1676143;84;25530;-66
2022/10/03 01:25:03;;;;;;;14.80;8.55;;;;;;;9.34;93.00;99527.08;1693141;83;27398;-66
2022/10/03 01:31:01;;;;;;;14.78;8.48;;;;;;;9.33;93.00;99524.16;1702602;83;25689;-68
2022/10/03 01:33:38;;;;;;;17.25;8.15;;;;;;;9.34;93.05;99520.34;1676206;85;26610;-65
2022/10/03 01:36:10;;;;;;;12.23;7.83;;;;;;;9.34;92.98;99519.55;1676951;85;25523;-66
2022/10/03 01:38:51;;;;;;;14.95;8.30;;;;;;;9.35;93.00;99520.58;1687735;85;27332;-68
2022/10/03 01:41:47;;;;;;;12.47;8.45;;;;;;;9.36;93.01;99526.77;1716250;83;25774;-65
2022/10/03 01:44:46;;;;;;;18.20;8.95;;;;;;;9.36;93.03;99524.06;1661408;85;25708;-67
2022/10/03 01:47:27;;;;;;;11.18;8.23;;;;;;;9.35;93.01;99510.36;1614073;88;25874;-68
2022/10/03 01:50:14;;;;;;;15.35;9.10;;;;;;;9.35;93.04;99519.23;1615012;88;25571;-67
2022/10/03 01:53:12;;;;;;;12.82;9.05;;;;;;;9.35;92.92;99519.80;1612417;87;27368;-66
2022/10/03 01:56:02;;;;;;;13.25;9.43;;;;;;;9.36;93.02;99522.72;1641147;87;25843;-68
2022/10/03 01:58:55;;;;;;;13.60;9.28;;;;;;;9.38;93.12;99521.05;1641023;87;25559;-67
2022/10/03 02:01:30;;;;;;;15.32;9.00;;;;;;;9.38;93.12;99516.47;1639751;86;26521;-66
2022/10/03 02:04:35;;;;;;;17.07;10.15;;;;;;;9.39;93.04;99519.38;1639065;87;25538;-65
2022/10/03 02:07:39;;;;;;;15.13;7.97;;;;;;;9.39;93.04;99515.34;1639255;87;28252;-68
2022/10/03 02:10:29;;;;;;;13.38;9.45;;;;;;;9.39;92.96;99507.23;1639776;87;25523;-66
2022/10/03 02:13:19;;;;;;;12.98;9.05;;;;;;;9.41;92.94;99508.27;1634069;87;25619;-66
2022/10/03 02:15:49;;;;;;;;;;;;;;;9.39;92.86;99509.16;1658870;85;25997;-67
2022/10/03 02:18:35;;;;;;;;;;;;;;;9.40;92.91;99510.19;1667103;84;25618;-66
2022/10/03 02:21:15;;;;;;;10.32;7.33;;;;;;;9.41;93.21;99503.66;1664678;86;27230;-65
2022/10/03 02:23:45;;;;;;;15.55;8.40;;;;;;;9.41;93.04;99490.73;1712336;81;25531;-65
2022/10/03 02:26:51;;;;;;;14.63;7.97;;;;;;;9.39;92.99;99492.39;1756616;81;25421;-65
2022/10/03 02:29:59;;;;;;;9.65;7.53;;;;;;;9.41;92.98;99498.83;1756310;81;28149;-67
2022/10/03 02:33:04;;;;;;;14.00;7.30;;;;;;;9.41;92.83;99492.08;1744533;81;25429;-66
2022/10/03 02:36:08;;;;;;;12.82;8.05;;;;;;;9.41;92.97;99487.46;1727192;81;29557;-68
2022/10/03 02:38:58;;;;;;;11.03;8.03;;;;;;;9.40;92.89;99488.59;1744404;81;25390;-65
2022/10/03 02:41:55;;;;;;;;;;;;;;;9.39;92.87;99487.56;1759441;81;25655;-66
2022/10/03 02:44:59;;;;;;;9.95;7.00;;;;;;;9.39;92.91;99488.34;1757499;81;26044;-67
2022/10/03 02:47:56;;;;;;;14.80;7.55;;;;;;;9.41;92.96;99483.98;1756771;81;25441;-66
2022/10/03 02:51:04;;;;;;;11.83;7.05;;;;;;;9.41;92.99;99486.68;1756798;80;27372;-66
2022/10/03 02:54:09;;;;;;;10.23;7.03;;;;;;;9.43;92.98;99493.36;1757972;81;27157;-68
2022/10/03 02:56:59;;;;;;;12.07;7.22;;;;;;;9.43;92.92;99485.27;1742883;81;25406;-67
2022/10/03 02:59:43;;;;;;;;;;;;;;;9.44;92.98;99482.00;1759011;81;28346;-68
2022/10/03 03:02:35;;;;;;;15.32;7.28;;;;;;;9.44;92.94;99482.78;1755932;80;25520;-65
2022/10/03 03:05:16;;;;;;;13.58;7.30;;;;;;;9.43;92.93;99488.50;1750351;80;27308;-67
2022/10/03 03:08:35;;;;;;;11.85;6.95;;;;;;;9.43;92.95;99488.50;1757063;80;25432;-67
2022/10/03 03:11:19;;;;;;;12.95;7.58;;;;;;;9.43;92.94;99478.52;1735744;82;25449;-67
2022/10/03 03:14:18;;;;;;;10.00;7.65;;;;;;;9.42;92.99;99486.36;1734633;82;26579;-67
2022/10/03 03:16:58;;;;;;;12.55;8.68;;;;;;;9.42;92.94;99485.02;1735918;82;25512;-66
2022/10/03 03:19:45;;;;;;;12.63;8.15;;;;;;;9.43;92.98;99481.75;1716562;82;28055;-67
2022/10/03 03:22:45;;;;;;;11.10;7.85;;;;;;;9.42;92.91;99478.83;1689402;84;25533;-66
2022/10/03 03:25:52;;;;;;;10.53;7.85;;;;;;;9.44;93.01;99477.95;1690844;84;25441;-67
2022/10/03 03:28:32;;;;;;;13.10;8.60;;;;;;;9.44;93.09;99465.80;1647393;85;26548;-67
2022/10/03 03:31:14;;;;;;;12.00;8.55;;;;;;;9.44;93.07;99466.58;1606164;89;25549;-65
2022/10/03 03:33:46;;;;;;;11.22;8.90;;;;;;;9.46;93.03;99470.31;1606195;87;29496;-66
2022/10/03 03:36:56;;;;;;;9.35;7.87;;;;;;;9.47;93.00;99463.25;1606152;87;25561;-66
2022/10/03 03:39:34;;;;;;;12.78;8.80;;;;;;;9.47;93.04;99464.59;1574119;90;25575;-65
2022/10/03 03:42:11;;;;;;;13.28;8.53;;;;;;;9.49;93.25;99464.28;1562145;90;26533;-67
2022/10/03 03:45:01;;;;;;;11.53;8.63;;;;;;;9.50;93.21;99461.80;1560456;91;25664;-65
2022/10/03 03:47:57;;;;;;;13.10;7.92;;;;;;;9.50;93.22;99454.52;1565680;91;27486;-65
2022/10/03 03:50:35;;;;;;;12.23;8.43;;;;;;;9.50;93.28;99446.41;1560463;91;25674;-67
2022/10/03 03:53:50;;;;;;;13.70;8.33;;;;;;;9.51;93.35;99447.98;1599142;89;25471;-65
2022/10/03 03:56:46;;;;;;;11.03;7.65;;;;;;;9.52;93.31;99446.09;1584819;90;26362;-65
2022/10/03 03:59:34;;;;;;;15.58;8.33;;;;;;;9.52;93.52;99444.75;1583113;90;25753;-67
2022/10/03 04:02:21;;;;;;;16.90;8.93;;;;;;;9.52;93.62;99439.34;1587039;89;27354;-65
2022/10/03 04:05:17;;;;;;;10.63;7.65;;;;;;;9.51;93.66;99439.88;1595460;89;25570;-65
2022/10/03 04:08:24;;;;;;;10.45;8.50;;;;;;;9.53;93.79;99438.22;1613636;86;25782;-65
2022/10/03 04:11:11;;;;;;;16.00;8.13;;;;;;;9.52;93.97;99442.05;1643779;86;25937;-66
2022/10/03 04:14:02;;;;;;;10.53;8.03;;;;;;;9.51;93.93;99426.38;1643379;87;25673;-66
2022/10/03 04:19:52;;;;;;;19.17;8.45;;;;;;;9.53;94.19;99423.36;1643938;85;25687;-65
2022/10/03 04:22:42;;;;;;;16.97;8.75;;;;;;;9.53;94.29;99427.41;1640356;85;25814;-67
2022/10/03 04:25:26;;;;;;;15.20;8.45;;;;;;;9.52;94.39;99423.93;1643863;86;26011;-67
2022/10/03 04:28:03;;;;;;;13.78;8.70;;;;;;;9.53;94.39;99416.08;1621108;87;25793;-67
2022/10/03 04:30:36;;;;;;;13.40;8.33;;;;;;;9.53;94.46;99410.68;1623226;88;27491;-65
2022/10/03 04:33:36;;;;;;;12.25;8.65;;;;;;;9.56;94.45;99413.84;1622963;88;25787;-66
2022/10/03 04:36:46;;;;;;;14.93;9.28;;;;;;;9.57;94.49;99412.17;1620360;87;25951;-66
2022/10/03 04:39:23;;;;;;;17.02;9.15;;;;;;;9.59;94.56;99405.88;1613348;87;25930;-66
2022/10/03 04:42:11;;;;;;;15.28;8.55;;;;;;;9.59;94.68;99404.53;1612435;87;25705;-66
2022/10/03 04:45:14;;;;;;;15.63;8.95;;;;;;;9.61;94.84;99403.64;1610609;87;27432;-68
2022/10/03 04:47:54;;;;;;;14.68;8.83;;;;;;;9.61;94.89;99406.91;1582706;89;25552;-68
2022/10/03 04:50:38;;;;;;;14.33;8.93;;;;;;;9.62;95.07;99405.78;1609376;87;26202;-66
2022/10/03 04:53:19;;;;;;;15.88;9.05;;;;;;;9.61;95.09;99396.90;1583130;89;26024;-66
2022/10/03 04:55:53;;;;;;;13.45;8.70;;;;;;;9.61;95.31;99388.80;1628524;87;25604;-65
2022/10/03 04:58:36;;;;;;;18.12;9.80;;;;;;;9.61;95.31;99387.45;1583251;89;27359;-67
2022/10/03 05:01:23;;;;;;;11.45;8.10;;;;;;;9.62;95.38;99389.05;1609299;87;25584;-66
2022/10/03 05:04:20;;;;;;;11.70;7.58;;;;;;;9.62;95.48;99390.93;1590473;88;25665;-67
2022/10/03 05:07:26;;;;;;;11.80;7.70;;;;;;;9.63;95.58;99393.31;1616102;87;26662;-66
2022/10/03 05:10:18;;;;;;;10.93;7.35;;;;;;;9.63;95.77;99383.86;1633540;87;25719;-68
2022/10/03 05:13:18;;;;;;;13.05;7.12;;;;;;;9.62;95.85;99386.88;1632872;87;27551;-68
2022/10/03 05:16:03;;;;;;;9.40;7.45;;;;;;;9.62;96.14;99386.88;1679631;81;25662;-68
2022/10/03 05:18:54;;;;;;;12.53;7.60;;;;;;;9.63;96.49;99380.38;1757690;81;25452;-68
2022/10/03 05:21:42;;;;;;;11.12;7.97;;;;;;;9.63;96.54;99370.92;1744829;80;25928;-65
2022/10/03 05:24:57;;;;;;;10.55;7.80;;;;;;;9.63;96.47;99374.98;1709646;83;25384;-67
2022/10/03 05:27:44;;;;;;;10.88;7.45;;;;;;;9.64;96.69;99376.57;1746759;81;27323;-69
2022/10/03 05:30:34;;;;;;;9.03;6.67;;;;;;;9.65;96.91;99371.39;1746049;81;25786;-66
2022/10/03 05:33:15;;;;;;;12.65;7.70;;;;;;;9.65;97.29;99373.55;1754535;81;25614;-66
2022/10/03 05:35:56;;;;;;;12.20;8.88;;;;;;;9.66;97.32;99369.72;1688577;84;26012;-71
2022/10/03 05:38:50;;;;;;;15.18;9.58;;;;;;;9.67;97.38;99368.61;1687646;84;25775;-69
2022/10/03 05:41:22;;;;;;;12.00;6.83;;;;;;;9.70;97.73;99376.06;1687183;84;27625;-71
2022/10/03 05:44:06;;;;;;;11.88;6.72;;;;;;;9.71;97.77;99374.15;1636950;86;27170;-71
2022/10/03 05:46:57;;;;;;;14.40;7.37;;;;;;;9.72;97.89;99368.42;1647595;86;25842;-71
2022/10/03 05:49:49;;;;;;;8.98;6.40;;;;;;;9.74;97.99;99376.20;1631039;87;26019;-71
2022/10/03 05:52:49;;;;;;;11.43;6.78;;;;;;;9.78;98.30;99373.64;1587237;90;25686;-69
2022/10/03 05:55:49;;;;;;;10.30;6.55;;;;;;;9.79;98.26;99373.86;1601723;88;27422;-69
2022/10/03 05:58:43;;;;;;;12.50;6.70;;;;;;;9.83;98.40;99376.16;1576135;91;26163;-71
2022/10/03 06:01:33;;;;;;;14.53;8.85;;;;;;;9.85;98.51;99368.52;1565668;91;25530;-69
2022/10/03 06:04:43;;;;;;;13.50;7.12;;;;;;;9.88;98.54;99358.41;1586680;89;25822;-70
2022/10/03 06:07:44;;;;;;;11.85;6.97;;;;;;;9.90;98.47;99358.88;1619943;88;25728;-71
2022/10/03 06:10:55;;;;;;;9.75;7.22;;;;;;;9.91;98.60;99353.72;1622678;88;28071;-70
2022/10/03 06:14:06;;;;;;;10.65;5.95;;;;;;;9.92;98.54;99356.62;1643486;86;25636;-70
2022/10/03 06:17:03;;;;;;;12.25;6.00;;;;;;;9.96;98.63;99351.36;1647036;86;25562;-70
2022/10/03 06:19:59;;;;;;;13.28;6.90;;;;;;;9.97;98.60;99354.30;1656557;86;25940;-70
2022/10/03 06:23:03;;;;;;;82.72;77.17;;;;;;;9.98;98.60;99347.80;1656511;85;25556;-71
2022/10/03 06:25:54;;;;;;;80.03;74.55;;;;;;;10.00;98.68;99346.91;1655634;86;27330;-70
2022/10/03 06:29:08;;;;;;;84.22;78.33;;;;;;;10.03;98.89;99351.09;1660535;86;25927;-69
2022/10/03 06:31:54;;;;;;;82.65;77.35;;;;;;;10.10;99.17;99339.77;1720475;83;25576;-70
2022/10/03 06:34:50;;;;;;;83.15;77.32;;;;;;;10.19;99.56;99332.37;1734380;81;26439;-69
2022/10/03 06:37:54;;;;;;;82.88;76.82;;;;;;;10.25;99.69;99327.01;1766716;81;25749;-68
2022/10/03 06:40:45;;;;;;;82.00;76.12;;;;;;;10.29;99.40;99323.08;1766365;81;28115;-71
2022/10/03 06:43:45;;;;;;;82.20;76.65;;;;;;;10.34;99.38;99325.61;1764975;81;25783;-69
2022/10/03 06:46:26;;;;;;;84.15;78.33;;;;;;;10.35;98.93;99331.80;1723276;82;32554;-70
2022/10/03 06:52:42;;;;;;;81.15;75.30;;;;;;;10.35;98.60;99309.64;1735750;81;25809;-72
2022/10/03 06:55:59;;;;;;;37.75;34.73;;;;;;;10.35;98.52;99317.75;1734649;82;28003;-71
2022/10/03 06:59:15;;;;;;;73.62;68.60;;;;;;;10.33;98.60;99317.27;1735281;82;25659;-69
2022/10/03 07:01:59;;;;;;;7.95;5.05;;;;;;;10.32;98.70;99329.75;1674573;85;25451;-70
2022/10/03 07:04:42;;;;;;;7.22;4.65;;;;;;;10.31;98.57;99321.41;1659483;84;25934;-70
2022/10/03 07:07:34;;;;;;;9.33;5.80;;;;;;;10.30;98.70;99328.73;1674799;85;25340;-71
2022/10/03 07:10:35;;;;;;;9.75;5.25;;;;;;;10.28;98.77;99333.11;1660445;85;27339;-71
2022/10/03 07:13:30;;;;;;;5.83;5.17;;;;;;;10.28;98.94;99328.24;1627992;86;26603;-72
2022/10/03 07:16:38;;;;;;;7.00;5.55;;;;;;;10.26;98.96;99327.22;1628539;86;25737;-69
2022/10/03 07:19:22;;;;;;;9.05;5.62;;;;;;;10.27;98.99;99336.14;1619527;87;26534;-70
2022/10/03 07:22:28;;;;;;;6.92;5.58;;;;;;;10.28;99.13;99330.95;1681580;84;25520;-70
2022/10/03 07:25:25;;;;;;;9.00;6.72;;;;;;;10.28;99.24;99339.87;1651517;85;27851;-69
2022/10/03 07:28:26;;;;;;;7.45;6.20;;;;;;;10.32;99.74;99333.81;1643034;87;25888;-69
2022/10/03 07:31:19;;;;;;;9.50;6.75;;;;;;;10.32;99.54;99331.92;1628368;87;25677;-69
2022/10/03 07:34:12;;;;;;;7.65;6.85;;;;;;;10.34;99.62;99335.64;1644233;86;26027;-70
2022/10/03 07:40:33;;;;;;;7.90;7.20;;;;;;;10.43;100.00;99329.59;1674274;85;27460;-69
2022/10/03 07:43:38;;;;;;;7.55;6.35;;;;;;;10.45;99.75;99344.91;1678800;85;25932;-70
2022/10/03 07:46:45;;;;;;;10.13;9.23;;;;;;;10.47;99.81;99333.20;1686745;85;25672;-68
2022/10/03 07:49:50;;;;;;;18.02;16.45;;;;;;;10.53;99.93;99335.16;1677281;85;25988;-69
2022/10/03 07:52:39;;;;;;;14.80;13.58;;;;;;;10.57;100.00;99335.53;1683175;84;25532;-70
2022/10/03 07:55:50;;;;;;;35.85;33.55;;;;;;;10.65;100.00;99329.22;1653448;86;27409;-70
2022/10/03 07:58:57;;;;;;;30.65;28.47;;;;;;;10.72;100.00;99336.80;1645474;85;25644;-71
2022/10/03 08:01:47;;;;;;;28.80;26.70;;;;;;;10.75;99.68;99332.08;1659585;85;25457;-70
2022/10/03 08:04:40;;;;;;;36.45;33.95;;;;;;;10.78;99.33;99317.12;1674395;85;25910;-70
2022/10/03 08:07:35;;;;;;;54.90;51.48;;;;;;;10.81;99.16;99314.53;1661201;84;25702;-69
2022/10/03 08:10:22;;;;;;;77.95;73.15;;;;;;;10.82;98.94;99322.08;1765586;81;27330;-71
2022/10/03 08:13:15;;;;;;;7.92;7.10;;;;;;;10.84;98.68;99321.17;1766857;79;25566;-69
2022/10/03 08:15:53;;;;;;;7.58;6.83;;;;;;;10.86;98.60;99318.14;1765678;80;25579;-71
2022/10/03 08:18:33;;;;;;;5.33;4.85;;;;;;;10.88;98.64;99320.75;1762269;81;26016;-71
2022/10/03 08:21:04;;;;;;;9.25;5.53;;;;;;;10.90;98.55;99321.77;1759117;81;25587;-70
2022/10/03 08:23:57;;;;;;;9.00;7.05;;;;;;;10.92;98.50;99320.88;1733071;82;26890;-70
2022/10/03 08:26:59;;;;;;;9.70;6.55;;;;;;;10.93;98.40;99319.19;1763801;81;25272;-73
2022/10/03 08:29:46;;;;;;;10.25;5.67;;;;;;;10.96;98.35;99317.71;1765626;80;25518;-69
2022/10/03 08:32:34;;;;;;;7.08;5.00;;;;;;;10.97;98.11;99321.44;1766153;80;25998;-71
2022/10/03 08:35:09;;;;;;;26.47;24.30;;;;;;;10.98;97.98;99319.52;1767220;80;25382;-69
2022/10/03 08:38:14;;;;;;;73.87;69.15;;;;;;;10.99;98.04;99323.23;1764166;80;27384;-69
2022/10/03 08:41:20;;;;;;;80.00;74.80;;;;;;;11.00;97.80;99315.36;1762949;80;25609;-69
2022/10/03 08:44:07;;;;;;;79.92;74.70;;;;;;;11.03;97.60;99323.36;1765371;80;25639;-69
2022/10/03 08:47:02;;;;;;;79.82;74.82;;;;;;;11.04;97.25;99322.24;1766463;81;26703;-69
2022/10/03 08:49:50;;;;;;;79.20;74.10;;;;;;;11.04;97.17;99315.48;1765470;81;25426;-71
2022/10/03 08:52:24;;;;;;;12.93;11.85;;;;;;;11.11;97.66;99311.65;1761540;81;29457;-70
2022/10/03 08:55:34;;;;;;;8.28;7.60;;;;;;;11.18;97.54;99321.35;1734592;81;25579;-70
2022/10/03 08:58:24;;;;;;;;;;;;;;;11.20;97.07;99327.78;1757174;81;25441;-70
2022/10/03 09:01:33;;;;;;;76.20;71.55;;;;;;;11.24;96.98;99329.25;1766398;81;26028;-71
2022/10/03 09:04:28;;;;;;;31.85;30.00;;;;;;;11.26;96.82;99331.08;1765539;79;25601;-69
2022/10/03 09:07:05;;;;;;;80.72;75.42;;;;;;;11.32;97.04;99316.18;1763452;79;27990;-71
2022/10/03 09:10:03;;;;;;;82.55;77.25;;;;;;;11.36;97.02;99325.22;1757032;81;25753;-69
2022/10/03 09:12:57;;;;;;;81.85;76.80;;;;;;;11.37;96.62;99325.44;1757902;81;25711;-69
2022/10/03 09:15:55;;;;;;;81.85;76.57;;;;;;;11.39;96.47;99340.77;1762476;79;26093;-70
2022/10/03 09:18:40;;;;;;;81.45;76.10;;;;;;;11.38;96.47;99337.28;1764820;81;25714;-70
2022/10/03 09:21:25;;;;;;;82.80;77.30;;;;;;;11.38;96.40;99339.98;1764985;81;27304;-69
2022/10/03 09:24:05;;;;;;;82.70;76.17;;;;;;;11.40;96.66;99328.83;1764557;79;25730;-70
2022/10/03 09:27:03;;;;;;;77.45;72.58;;;;;;;11.43;96.54;99332.79;1766509;79;25576;-68
2022/10/03 09:29:52;;;;;;;7.22;5.35;;;;;;;11.43;96.37;99335.50;1727069;82;26118;-70
2022/10/03 09:32:41;;;;;;;8.13;4.95;;;;;;;11.42;96.18;99350.16;1734872;82;25659;-70
2022/10/03 09:35:39;;;;;;;8.13;7.30;;;;;;;11.40;96.13;99342.36;1735265;82;27357;-69
2022/10/03 09:38:42;;;;;;;4.95;4.40;;;;;;;11.40;96.51;99334.23;1715661;82;25728;-68
2022/10/03 09:42:05;;;;;;;7.85;5.28;;;;;;;11.40;96.66;99347.20;1726728;82;25759;-67
2022/10/03 09:44:51;;;;;;;10.20;6.28;;;;;;;11.42;97.04;99350.94;1700865;84;25995;-66
2022/10/03 09:47:51;;;;;;;8.20;7.15;;;;;;;11.42;96.98;99350.16;1705765;84;25466;-66
2022/10/03 09:50:55;;;;;;;11.25;10.18;;;;;;;11.42;97.09;99357.70;1696077;84;27409;-68
2022/10/03 09:53:47;;;;;;;16.23;15.08;;;;;;;11.43;97.25;99351.74;1706239;84;25465;-66
2022/10/03 09:56:30;;;;;;;56.10;52.70;;;;;;;11.43;97.28;99370.13;1664437;86;25824;-66
2022/10/03 09:59:27;;;;;;;83.95;78.65;;;;;;;11.47;97.82;99362.11;1631711;85;25922;-67
2022/10/03 10:02:22;;;;;;;85.15;79.72;;;;;;;11.51;98.25;99367.07;1636749;85;25857;-66
2022/10/03 10:05:29;;;;;;;13.95;12.82;;;;;;;11.56;98.22;99364.95;1636348;87;27293;-68
2022/10/03 10:08:29;;;;;;;9.08;6.67;;;;;;;11.63;98.65;99371.70;1609978;88;25797;-66
2022/10/03 10:11:51;;;;;;;9.35;8.45;;;;;;;11.72;98.75;99380.53;1610930;87;25713;-68
2022/10/03 10:14:39;;;;;;;8.03;5.35;;;;;;;11.77;98.15;99380.30;1610781;88;26008;-69
2022/10/03 10:17:33;;;;;;;8.90;5.37;;;;;;;11.80;97.81;99392.37;1613703;88;25840;-65
2022/10/03 10:20:47;;;;;;;6.00;5.28;;;;;;;11.81;97.59;99398.02;1608604;89;27557;-66
2022/10/03 10:23:26;;;;;;;8.83;6.70;;;;;;;11.83;97.47;99392.48;1632365;85;25479;-66
2022/10/03 10:26:15;;;;;;;7.60;6.35;;;;;;;11.83;97.14;99393.83;1691964;84;25578;-67
2022/10/03 10:29:17;;;;;;;8.60;7.92;;;;;;;11.85;97.17;99398.37;1670810;85;26001;-66
2022/10/03 10:32:28;;;;;;;12.65;11.65;;;;;;;11.90;97.22;99391.91;1669255;84;25345;-66
2022/10/03 10:35:03;;;;;;;47.33;44.42;;;;;;;12.08;98.32;99396.57;1667118;84;28207;-68
2022/10/03 10:37:55;;;;;;;76.37;71.57;;;;;;;12.35;99.45;99392.92;1675537;84;25653;-67
2022/10/03 10:40:53;;;;;;;7.72;4.85;;;;;;;12.89;100.00;99396.59;1659943;84;25773;-67
2022/10/03 10:44:06;;;;;;;4.08;3.42;;;;;;;13.11;99.32;99405.29;1670233;84;26000;-65
2022/10/03 10:47:16;;;;;;;4.28;3.00;;;;;;;13.11;96.21;99414.24;1669855;84;25470;-66
2022/10/03 10:50:20;;;;;;;4.10;2.47;;;;;;;13.02;94.06;99410.88;1675667;84;28251;-65
2022/10/03 10:53:36;;;;;;;4.15;2.47;;;;;;;12.90;93.42;99426.64;1668271;84;25848;-66
2022/10/03 10:56:42;;;;;;;2.45;2.00;;;;;;;12.75;93.04;99428.16;1649854;85;25713;-68
2022/10/03 10:59:49;;;;;;;7.00;3.85;;;;;;;12.63;93.20;99439.87;1691929;82;26870;-65
2022/10/03 11:02:59;;;;;;;3.10;2.02;;;;;;;12.54;93.25;99439.77;1727755;82;25661;-65
2022/10/03 11:06:13;;;;;;;3.58;2.55;;;;;;;12.44;93.32;99438.31;1705044;82;27319;-67
2022/10/03 11:09:11;;;;;;;2.90;1.70;;;;;;;12.32;92.76;99448.04;1727027;82;25724;-66
2022/10/03 11:12:31;;;;;;;1.77;1.50;;;;;;;12.35;93.97;99460.14;1728952;82;25777;-66
2022/10/03 11:15:26;;;;;;;2.08;1.85;;;;;;;12.54;95.30;99467.67;1718694;82;25975;-66
2022/10/03 11:18:20;;;;;;;3.35;1.12;;;;;;;12.62;94.91;99481.68;1712127;82;25862;-65
2022/10/03 11:21:17;;;;;;;1.75;0.90;;;;;;;12.58;93.01;99482.70;1721514;82;25767;-67
2022/10/03 11:24:10;;;;;;;1.32;1.12;;;;;;;12.47;91.50;99500.02;1718617;82;25636;-67
2022/10/03 11:26:58;;;;;;;5.15;1.32;;;;;;;12.43;91.52;99505.34;1717895;82;25661;-68
2022/10/03 11:29:53;;;;;;;3.12;1.30;;;;;;;12.43;91.68;99522.15;1730735;82;26791;-66
2022/10/03 11:33:00;;;;;;;1.67;1.42;;;;;;;12.46;91.78;99514.70;1739415;81;25698;-67
2022/10/03 11:35:58;;;;;;;3.12;1.12;;;;;;;12.57;91.61;99521.83;1726619;82;27423;-66
2022/10/03 11:38:34;;;;;;;2.42;1.00;;;;;;;13.11;93.21;99528.82;1670214;85;25535;-67
2022/10/03 11:41:17;;;;;;;3.30;1.00;;;;;;;14.19;96.95;99525.09;1654746;85;25879;-66
2022/10/03 11:44:16;;;;;;;2.20;1.67;;;;;;;14.94;95.13;99536.14;1668653;85;25666;-66
2022/10/03 11:47:20;;;;;;;0.90;0.90;;;;;;;15.81;92.53;99542.14;1612299;87;25539;-68
2022/10/03 11:50:13;;;;;;;1.22;0.90;;;;;;;16.86;89.21;99536.41;1600088;88;29505;-67
2022/10/03 11:53:09;;;;;;;4.00;1.55;;;;;;;17.90;84.09;99540.34;1610027;87;25749;-67
2022/10/03 11:55:52;;;;;;;3.22;1.10;;;;;;;18.45;78.15;99545.08;1638161;85;25656;-66
2022/10/03 11:59:14;;;;;;;1.17;1.07;;;;;;;18.94;77.32;99560.88;1638227;85;26549;-67
2022/10/03 12:01:51;;;;;;;1.60;1.27;;;;;;;19.31;74.95;99551.66;1648708;86;25709;-66
2022/10/03 12:04:29;;;;;;;7.28;2.42;;;;;;;19.82;71.62;99552.61;1661561;86;27544;-66
2022/10/03 12:10:38;;;;;;;2.90;1.37;;;;;;;19.01;65.37;99566.39;1661700;86;25630;-67
2022/10/03 12:13:16;;;;;;;3.12;2.85;;;;;;;18.42;64.04;99567.77;1650577;86;25989;-67
2022/10/03 12:15:54;;;;;;;2.70;1.20;;;;;;;17.84;63.46;99573.85;1660032;85;25726;-66
2022/10/03 12:18:43;;;;;;;1.72;1.62;;;;;;;17.46;64.44;99573.06;1667706;84;28139;-68
2022/10/03 12:21:29;;;;;;;4.17;1.60;;;;;;;17.13;65.09;99574.63;1733767;81;25689;-66
2022/10/03 12:24:22;;;;;;;3.22;2.92;;;;;;;16.86;64.95;99578.73;1726703;81;25616;-68
2022/10/03 12:27:00;;;;;;;5.50;2.58;;;;;;;16.71;65.80;99590.58;1683812;82;25936;-67
2022/10/03 12:29:31;;;;;;;2.40;1.30;;;;;;;16.89;63.83;99586.77;1741193;81;25662;-66
2022/10/03 12:32:27;;;;;;;3.65;3.37;;;;;;;17.07;64.35;99592.48;1737442;81;28120;-66
2022/10/03 12:35:23;;;;;;;5.25;2.60;;;;;;;17.55;61.67;99588.58;1733704;81;25400;-65
2022/10/03 12:37:59;;;;;;;3.95;1.10;;;;;;;17.98;62.27;99608.24;1751642;81;25405;-66
2022/10/03 12:40:36;;;;;;;3.10;2.90;;;;;;;18.41;61.76;99599.63;1682044;82;25997;-68
2022/10/03 12:43:17;;;;;;;2.08;1.90;;;;;;;18.71;60.65;99602.77;1751539;81;25411;-66
2022/10/03 12:45:51;;;;;;;3.08;2.83;;;;;;;19.06;60.22;99614.58;1743885;81;26805;-66
2022/10/03 12:48:35;;;;;;;3.62;1.65;;;;;;;19.57;61.02;99607.38;1736415;80;26744;-69
2022/10/03 12:51:18;;;;;;;3.70;1.07;;;;;;;20.15;59.76;99631.06;1698592;84;25905;-67
2022/10/03 12:54:21;;;;;;;3.85;1.50;;;;;;;20.52;57.66;99629.92;1765780;79;26036;-66
2022/10/03 12:56:59;;;;;;;1.02;0.93;;;;;;;20.58;55.58;99626.78;1765954;79;25675;-66
2022/10/03 12:59:55;;;;;;;3.12;1.30;;;;;;;20.49;53.47;99630.70;1729152;81;29440;-66
2022/10/03 13:02:41;;;;;;;4.45;1.27;;;;;;;20.34;52.84;99629.13;1646976;85;25914;-67
2022/10/03 13:05:55;;;;;;;2.45;1.70;;;;;;;19.85;53.55;99640.21;1654972;84;26424;-67
2022/10/03 13:08:27;;;;;;;5.45;4.95;;;;;;;19.81;52.68;99638.06;1637806;86;26024;-68
2022/10/03 13:11:04;;;;;;;2.20;1.00;;;;;;;19.53;52.79;99637.54;1666625;84;25860;-67
2022/10/03 13:13:45;;;;;;;1.10;1.00;;;;;;;19.33;52.63;99635.67;1675796;84;27295;-66
2022/10/03 13:16:32;;;;;;;1.22;1.12;;;;;;;19.22;52.75;99645.79;1650224;84;25805;-66
2022/10/03 13:19:20;;;;;;;1.42;1.32;;;;;;;18.97;51.68;99636.84;1671251;84;26429;-67
2022/10/03 13:22:02;;;;;;;3.60;1.55;;;;;;;18.69;51.90;99649.72;1664381;84;25924;-67
2022/10/03 13:24:52;;;;;;;2.02;1.42;;;;;;;18.70;51.44;99636.83;1672016;84;25723;-67
2022/10/03 13:27:44;;;;;;;1.17;0.75;;;;;;;18.54;51.67;99652.94;1645752;85;29627;-67
2022/10/03 13:30:23;;;;;;;3.37;3.12;;;;;;;18.60;51.64;99648.67;1654524;85;25518;-67
2022/10/03 13:33:11;;;;;;;;;;;;;;;18.90;51.09;99646.96;1655750;85;25759;-68
2022/10/03 13:36:01;;;;;;;0.93;0.80;;;;;;;18.99;50.81;99645.47;1649194;85;25643;-67
2022/10/03 13:38:45;;;;;;;5.83;2.37;;;;;;;19.16;50.88;99658.30;1683688;83;26353;-68
2022/10/03 13:41:42;;;;;;;6.67;5.75;;;;;;;19.25;49.96;99663.44;1704868;83;27838;-68
2022/10/03 13:44:27;;;;;;;3.15;0.93;;;;;;;19.20;49.79;99657.14;1696848;83;25944;-67
2022/10/03 13:47:22;;;;;;;1.95;0.95;;;;;;;19.23;49.64;99668.71;1702011;83;25861;-68